createdAt,value
2023-05-21T00:00:19.330Z,98.56
2023-05-21T00:02:31.426Z,98.56
2023-05-21T00:04:43.460Z,98.16
2023-05-21T00:06:55.562Z,99.11
2023-05-21T00:09:08.616Z,99.22
2023-05-21T00:11:20.696Z,99.42
2023-05-21T00:13:32.763Z,99.02
2023-05-21T00:15:45.827Z,99.42
2023-05-21T00:17:57.970Z,99.57
2023-05-21T00:20:10.029Z,99.37
2023-05-21T00:22:23.589Z,99.98
2023-05-21T00:24:35.629Z,99.99
2023-05-21T00:26:47.733Z,99.99
2023-05-21T00:29:01.346Z,99.99
2023-05-21T00:31:13.458Z,99.99
2023-05-21T00:33:26.625Z,99.99
2023-05-21T00:35:40.090Z,99.99
2023-05-21T00:37:52.181Z,99.99
2023-05-21T00:40:05.245Z,99.99
2023-05-21T00:42:18.838Z,99.99
2023-05-21T00:44:30.929Z,99.99
2023-05-21T00:46:42.988Z,99.99
2023-05-21T00:48:56.601Z,99.99
2023-05-21T00:51:08.648Z,99.99
2023-05-21T00:53:20.746Z,99.99
2023-05-21T00:55:32.889Z,99.99
2023-05-21T00:57:44.921Z,99.99
2023-05-21T00:59:58.504Z,99.99
2023-05-21T01:02:10.595Z,99.99
2023-05-21T01:04:22.666Z,99.99
2023-05-21T01:06:34.864Z,99.99
2023-05-21T01:08:46.860Z,99.99
2023-05-21T01:10:58.977Z,99.99
2023-05-21T01:13:11.993Z,99.99
2023-05-21T01:15:24.089Z,99.99
2023-05-21T01:17:36.203Z,99.99
2023-05-21T01:19:49.355Z,99.99
2023-05-21T01:22:01.339Z,99.99
2023-05-21T01:24:14.889Z,99.99
2023-05-21T01:26:28.492Z,99.99
2023-05-21T01:28:40.624Z,99.99
2023-05-21T01:30:54.144Z,99.99
2023-05-21T01:33:06.296Z,99.99
2023-05-21T01:35:18.333Z,99.99
2023-05-21T01:37:30.397Z,99.99
2023-05-21T01:39:42.500Z,99.99
2023-05-21T01:41:54.576Z,99.99
2023-05-21T01:44:08.145Z,99.99
2023-05-21T01:46:20.291Z,99.99
2023-05-21T01:48:33.815Z,99.99
2023-05-21T01:50:45.931Z,99.99
2023-05-21T01:52:57.983Z,99.99
2023-05-21T01:55:10.077Z,99.99
2023-05-21T01:57:22.137Z,99.99
2023-05-21T01:59:34.208Z,99.99
2023-05-21T02:01:46.367Z,99.99
2023-05-21T02:03:58.515Z,99.99
2023-05-21T02:06:10.457Z,99.99
2023-05-21T02:08:24.550Z,99.99
2023-05-21T02:10:36.622Z,99.99
2023-05-21T02:12:50.234Z,99.99
2023-05-21T02:15:02.283Z,99.99
2023-05-21T02:17:15.356Z,99.99
2023-05-21T02:19:28.976Z,99.99
2023-05-21T02:21:41.037Z,99.99
2023-05-21T02:23:53.158Z,99.99
2023-05-21T02:26:05.199Z,99.99
2023-05-21T02:28:18.775Z,99.99
2023-05-21T02:30:30.839Z,99.99
2023-05-21T02:32:44.448Z,99.99
2023-05-21T02:34:56.532Z,99.99
2023-05-21T02:37:09.604Z,99.99
2023-05-21T02:39:22.649Z,99.99
2023-05-21T02:41:36.240Z,99.99
2023-05-21T02:43:48.297Z,99.99
2023-05-21T02:46:00.444Z,99.99
2023-05-21T02:48:12.550Z,99.99
2023-05-21T02:50:24.568Z,99.99
2023-05-21T02:52:36.661Z,99.99
2023-05-21T02:54:48.726Z,99.99
2023-05-21T02:57:02.351Z,99.99
2023-05-21T02:59:14.396Z,99.99
2023-05-21T03:01:26.541Z,99.99
2023-05-21T03:03:40.143Z,99.99
2023-05-21T03:05:53.175Z,99.99
2023-05-21T03:08:05.258Z,99.99
2023-05-21T03:10:17.311Z,99.99
2023-05-21T03:12:29.399Z,99.99
2023-05-21T03:14:41.480Z,99.99
2023-05-21T03:16:55.020Z,99.99
2023-05-21T03:19:07.053Z,99.99
2023-05-21T03:21:19.111Z,99.99
2023-05-21T03:23:31.213Z,99.99
2023-05-21T03:25:44.775Z,99.99
2023-05-21T03:27:56.883Z,99.99
2023-05-21T03:30:08.995Z,99.99
2023-05-21T03:32:21.162Z,99.99
2023-05-21T03:34:33.137Z,99.99
2023-05-21T03:36:45.208Z,99.99
2023-05-21T03:38:57.332Z,99.99
2023-05-21T03:41:10.940Z,99.99
2023-05-21T03:43:22.996Z,99.99
2023-05-21T03:45:35.234Z,99.99
2023-05-21T03:47:48.713Z,99.99
2023-05-21T03:50:00.744Z,99.99
2023-05-21T03:52:12.841Z,99.99
2023-05-21T03:54:24.903Z,99.99
2023-05-21T03:56:36.976Z,99.99
2023-05-21T03:58:49.091Z,99.99
2023-05-21T04:01:01.201Z,99.99
2023-05-21T04:03:13.367Z,99.99
2023-05-21T04:05:26.329Z,99.99
2023-05-21T04:07:38.467Z,99.99
2023-05-21T04:11:07.948Z,99.99
2023-05-21T04:13:20.995Z,99.99
2023-05-21T04:15:33.068Z,99.99
2023-05-21T04:17:45.159Z,99.99
2023-05-21T04:19:57.261Z,99.99
2023-05-21T04:22:10.821Z,99.99
2023-05-21T04:24:22.906Z,99.99
2023-05-21T04:26:34.990Z,99.99
2023-05-21T04:28:50.557Z,99.99
2023-05-21T04:31:02.784Z,99.99
2023-05-21T04:33:14.722Z,99.99
2023-05-21T04:35:26.798Z,99.99
2023-05-21T04:37:39.868Z,99.99
2023-05-21T04:39:51.945Z,99.99
2023-05-21T04:42:04.062Z,99.99
2023-05-21T04:44:16.102Z,99.90
2023-05-21T04:46:29.211Z,99.55
2023-05-21T04:48:41.262Z,99.10
2023-05-21T04:50:54.865Z,98.79
2023-05-21T04:53:06.932Z,98.03
2023-05-21T04:55:19.015Z,97.73
2023-05-21T04:57:31.100Z,97.28
2023-05-21T04:59:44.692Z,96.73
2023-05-21T05:01:56.772Z,96.18
2023-05-21T05:04:09.865Z,95.57
2023-05-21T05:06:21.930Z,95.12
2023-05-21T05:08:33.990Z,93.66
2023-05-21T05:10:47.072Z,93.32
2023-05-21T05:12:59.174Z,93.01
2023-05-21T05:15:11.248Z,92.36
2023-05-21T05:17:23.365Z,92.32
2023-05-21T05:19:35.487Z,90.70
2023-05-21T05:21:47.449Z,90.81
2023-05-21T05:24:01.069Z,90.77
2023-05-21T05:26:14.168Z,90.06
2023-05-21T05:28:26.228Z,90.32
2023-05-21T05:30:38.378Z,90.01
2023-05-21T05:32:51.925Z,89.51
2023-05-21T05:35:03.968Z,89.41
2023-05-21T05:37:16.081Z,89.06
2023-05-21T05:39:28.171Z,88.36
2023-05-21T05:41:40.254Z,87.51
2023-05-21T05:43:52.346Z,87.92
2023-05-21T05:46:05.458Z,87.77
2023-05-21T05:48:17.588Z,87.07
2023-05-21T05:50:29.581Z,86.97
2023-05-21T05:52:41.650Z,86.93
2023-05-21T05:54:53.708Z,86.63
2023-05-21T05:57:05.819Z,86.32
2023-05-21T05:59:17.910Z,85.38
2023-05-21T06:01:29.972Z,86.12
2023-05-21T06:03:42.198Z,86.52
2023-05-21T06:05:54.189Z,86.83
2023-05-21T06:08:06.238Z,86.83
2023-05-21T06:10:18.336Z,86.12
2023-05-21T06:12:30.423Z,86.77
2023-05-21T06:14:45.212Z,86.12
2023-05-21T06:16:56.052Z,86.12
2023-05-21T06:19:08.140Z,85.72
2023-05-21T06:21:20.244Z,85.68
2023-05-21T06:23:33.786Z,85.52
2023-05-21T06:25:45.853Z,85.38
2023-05-21T06:27:57.936Z,85.58
2023-05-21T06:30:10.018Z,85.68
2023-05-21T06:32:22.226Z,85.64
2023-05-21T06:34:34.176Z,85.24
2023-05-21T06:36:46.297Z,84.83
2023-05-21T06:38:58.342Z,83.73
2023-05-21T06:41:10.414Z,84.59
2023-05-21T06:43:22.510Z,83.79
2023-05-21T06:45:35.895Z,82.98
2023-05-21T06:47:47.700Z,84.19
2023-05-21T06:50:03.216Z,83.59
2023-05-21T06:52:15.310Z,82.95
2023-05-21T06:54:27.422Z,82.51
2023-05-21T06:56:39.488Z,81.62
2023-05-21T06:58:51.542Z,79.98
2023-05-21T07:01:04.684Z,79.24
2023-05-21T07:03:16.812Z,79.50
2023-05-21T07:05:28.828Z,76.37
2023-05-21T07:07:45.354Z,75.23
2023-05-21T07:09:57.423Z,75.49
2023-05-21T07:12:22.672Z,75.09
2023-05-21T07:14:24.164Z,73.82
2023-05-21T07:16:37.901Z,71.69
2023-05-21T07:19:14.950Z,70.79
2023-05-21T07:23:36.612Z,71.12
2023-05-21T07:25:51.200Z,70.53
2023-05-21T07:28:07.374Z,69.59
2023-05-21T07:30:20.396Z,69.09
2023-05-21T07:32:36.110Z,69.96
2023-05-21T07:34:51.211Z,68.66
2023-05-21T07:37:06.026Z,67.60
2023-05-21T07:39:19.264Z,68.53
2023-05-21T07:41:32.258Z,67.37
2023-05-21T07:43:45.376Z,68.93
2023-05-21T07:45:58.910Z,66.74
2023-05-21T07:48:12.503Z,68.40
2023-05-21T07:50:26.098Z,66.94
2023-05-21T07:52:39.759Z,67.66
2023-05-21T07:54:52.925Z,67.27
2023-05-21T07:57:06.728Z,67.24
2023-05-21T07:59:20.397Z,66.80
2023-05-21T08:02:50.011Z,66.57
2023-05-21T08:05:03.096Z,65.98
2023-05-21T08:07:19.597Z,65.68
2023-05-21T08:09:34.175Z,65.58
2023-05-21T08:11:50.676Z,65.25
2023-05-21T08:14:02.867Z,64.62
2023-05-21T08:16:15.978Z,64.09
2023-05-21T08:18:29.548Z,61.51
2023-05-21T08:20:43.167Z,64.22
2023-05-21T08:22:58.849Z,61.55
2023-05-21T08:25:12.322Z,60.26
2023-05-21T08:27:24.403Z,60.75
2023-05-21T08:29:38.095Z,61.72
2023-05-21T08:31:51.162Z,61.45
2023-05-21T08:34:04.234Z,61.28
2023-05-21T08:36:17.782Z,61.78
2023-05-21T08:38:31.377Z,61.35
2023-05-21T08:40:43.450Z,60.30
2023-05-21T08:42:55.520Z,61.26
2023-05-21T08:45:07.675Z,58.15
2023-05-21T08:47:19.713Z,60.23
2023-05-21T08:49:32.062Z,60.33
2023-05-21T08:51:44.155Z,59.91
2023-05-21T08:53:56.219Z,58.12
2023-05-21T08:56:08.322Z,58.88
2023-05-21T08:58:20.379Z,57.40
2023-05-21T09:00:32.468Z,58.16
2023-05-21T09:02:44.641Z,57.84
2023-05-21T09:04:57.619Z,58.67
2023-05-21T09:07:09.752Z,56.76
2023-05-21T09:09:21.805Z,56.30
2023-05-21T09:11:34.870Z,55.53
2023-05-21T09:13:46.942Z,56.59
2023-05-21T09:15:59.030Z,55.18
2023-05-21T09:18:11.148Z,54.46
2023-05-21T09:20:23.168Z,55.28
2023-05-21T09:22:36.768Z,54.46
2023-05-21T09:24:48.870Z,53.87
2023-05-21T09:27:00.934Z,55.05
2023-05-21T09:29:13.080Z,53.55
2023-05-21T09:31:25.141Z,52.04
2023-05-21T09:33:37.181Z,52.78
2023-05-21T09:35:49.282Z,53.30
2023-05-21T09:38:01.374Z,50.04
2023-05-21T09:40:13.441Z,51.45
2023-05-21T09:42:25.537Z,49.45
2023-05-21T09:44:37.611Z,50.54
2023-05-21T09:46:51.384Z,51.15
2023-05-21T09:49:03.308Z,49.90
2023-05-21T09:51:15.392Z,51.32
2023-05-21T09:53:27.453Z,49.60
2023-05-21T09:55:39.515Z,49.11
2023-05-21T09:57:51.600Z,47.83
2023-05-21T10:00:03.682Z,48.20
2023-05-21T10:02:15.974Z,47.61
2023-05-21T10:04:27.898Z,50.12
2023-05-21T10:06:39.973Z,49.82
2023-05-21T10:08:52.011Z,50.16
2023-05-21T10:11:04.083Z,49.38
2023-05-21T10:13:16.182Z,48.20
2023-05-21T10:15:28.244Z,48.59
2023-05-21T10:17:40.336Z,48.00
2023-05-21T10:19:53.897Z,51.25
2023-05-21T10:22:05.984Z,49.48
2023-05-21T10:24:18.098Z,47.97
2023-05-21T10:26:30.139Z,50.14
2023-05-21T10:28:42.214Z,50.38
2023-05-21T10:30:54.296Z,50.51
2023-05-21T10:33:06.428Z,50.56
2023-05-21T10:35:18.489Z,52.83
2023-05-21T10:37:31.512Z,52.73
2023-05-21T10:39:43.678Z,51.84
2023-05-21T10:41:58.423Z,51.28
2023-05-21T10:44:09.577Z,48.98
2023-05-21T10:46:21.765Z,48.57
2023-05-21T10:48:33.753Z,48.05
2023-05-21T10:50:45.850Z,48.64
2023-05-21T10:52:57.887Z,48.22
2023-05-21T10:55:10.000Z,47.34
2023-05-21T10:57:23.121Z,48.30
2023-05-21T10:59:35.220Z,48.39
2023-05-21T11:01:47.446Z,46.53
2023-05-21T11:03:59.468Z,50.12
2023-05-21T11:06:11.436Z,48.49
2023-05-21T11:08:25.361Z,47.71
2023-05-21T11:10:38.824Z,49.40
2023-05-21T11:12:50.510Z,50.37
2023-05-21T11:15:04.076Z,47.44
2023-05-21T11:17:16.423Z,49.06
2023-05-21T11:19:31.841Z,50.14
2023-05-21T11:21:41.827Z,48.86
2023-05-21T11:23:53.980Z,48.94
2023-05-21T11:26:05.991Z,47.63
2023-05-21T11:28:18.056Z,46.80
2023-05-21T11:30:30.167Z,47.88
2023-05-21T11:32:42.288Z,46.50
2023-05-21T11:34:54.292Z,46.62
2023-05-21T11:37:06.398Z,48.10
2023-05-21T11:39:18.478Z,47.02
2023-05-21T11:41:30.569Z,47.91
2023-05-21T11:43:42.620Z,48.79
2023-05-21T11:45:54.698Z,46.77
2023-05-21T11:48:10.398Z,48.96
2023-05-21T11:50:26.579Z,48.27
2023-05-21T11:52:41.527Z,47.97
2023-05-21T11:54:53.663Z,47.53
2023-05-21T11:57:09.226Z,46.70
2023-05-21T11:59:22.292Z,46.66
2023-05-21T12:01:35.377Z,45.99
2023-05-21T12:03:49.538Z,46.48
2023-05-21T12:06:05.180Z,45.89
2023-05-21T12:08:16.725Z,45.50
2023-05-21T12:10:31.346Z,45.20
2023-05-21T12:12:54.103Z,45.45
2023-05-21T12:13:43.969Z,45.94
2023-05-21T12:15:59.607Z,44.81
2023-05-21T12:18:16.062Z,45.28
2023-05-21T12:20:30.249Z,43.80
2023-05-21T12:22:43.277Z,43.32
2023-05-21T12:24:56.333Z,46.09
2023-05-21T12:27:11.921Z,44.89
2023-05-21T12:29:27.493Z,44.49
2023-05-21T12:31:54.383Z,43.93
2023-05-21T12:33:56.680Z,44.91
2023-05-21T12:36:10.805Z,44.31
2023-05-21T12:38:24.379Z,46.06
2023-05-21T12:40:37.943Z,44.07
2023-05-21T12:42:53.034Z,44.56
2023-05-21T12:45:06.605Z,42.49
2023-05-21T12:47:22.230Z,44.85
2023-05-21T12:49:37.765Z,45.15
2023-05-21T12:51:51.423Z,43.79
2023-05-21T12:54:05.062Z,44.68
2023-05-21T12:56:18.074Z,45.31
2023-05-21T12:58:31.192Z,45.47
2023-05-21T13:00:43.211Z,44.19
2023-05-21T13:02:55.296Z,44.38
2023-05-21T13:05:07.406Z,45.67
2023-05-21T13:07:21.045Z,45.39
2023-05-21T13:09:34.576Z,45.31
2023-05-21T13:11:46.630Z,46.75
2023-05-21T13:13:58.718Z,44.58
2023-05-21T13:16:10.810Z,46.23
2023-05-21T13:18:23.912Z,44.85
2023-05-21T13:20:36.134Z,44.46
2023-05-21T13:22:49.007Z,44.58
2023-05-21T13:25:01.122Z,45.07
2023-05-21T13:27:13.186Z,45.88
2023-05-21T13:29:25.265Z,45.90
2023-05-21T13:31:37.325Z,45.53
2023-05-21T13:33:49.425Z,46.10
2023-05-21T13:36:01.495Z,45.14
2023-05-21T13:38:13.603Z,45.02
2023-05-21T13:40:25.647Z,45.81
2023-05-21T13:42:37.734Z,44.53
2023-05-21T13:44:49.882Z,44.62
2023-05-21T13:47:02.051Z,46.40
2023-05-21T13:49:14.060Z,45.68
2023-05-21T13:51:38.658Z,45.17
2023-05-21T13:53:39.825Z,46.25
2023-05-21T13:55:51.788Z,45.37
2023-05-21T13:58:05.384Z,46.55
2023-05-21T14:00:17.498Z,44.48
2023-05-21T14:02:30.626Z,45.68
2023-05-21T14:04:43.624Z,45.68
2023-05-21T14:06:56.761Z,45.29
2023-05-21T14:09:08.826Z,46.79
2023-05-21T14:11:21.966Z,46.03
2023-05-21T14:13:34.935Z,46.52
2023-05-21T14:15:46.162Z,46.30
2023-05-21T14:17:58.214Z,45.41
2023-05-21T14:20:11.318Z,45.78
2023-05-21T14:22:24.915Z,46.40
2023-05-21T14:24:38.486Z,46.62
2023-05-21T14:26:52.089Z,46.91
2023-05-21T14:29:04.177Z,47.33
2023-05-21T14:31:16.243Z,47.82
2023-05-21T14:33:29.268Z,46.47
2023-05-21T14:35:41.315Z,47.47
2023-05-21T14:37:54.896Z,47.57
2023-05-21T14:40:06.969Z,48.96
2023-05-21T14:42:20.554Z,47.79
2023-05-21T14:44:32.822Z,47.69
2023-05-21T14:46:45.309Z,49.48
2023-05-21T14:48:56.794Z,48.68
2023-05-21T14:51:09.867Z,49.49
2023-05-21T14:53:22.958Z,48.61
2023-05-21T14:55:36.937Z,48.14
2023-05-21T14:57:47.110Z,47.34
2023-05-21T15:00:00.198Z,47.74
2023-05-21T15:02:12.612Z,48.73
2023-05-21T15:04:24.323Z,47.94
2023-05-21T15:06:36.443Z,49.02
2023-05-21T15:08:48.480Z,48.02
2023-05-21T15:11:00.608Z,47.42
2023-05-21T15:13:12.669Z,48.71
2023-05-21T15:15:24.759Z,47.81
2023-05-21T15:17:37.971Z,47.81
2023-05-21T15:19:49.920Z,48.28
2023-05-21T15:22:01.996Z,47.32
2023-05-21T15:24:14.063Z,48.28
2023-05-21T15:26:26.147Z,48.28
2023-05-21T15:28:38.265Z,47.10
2023-05-21T15:30:51.809Z,47.40
2023-05-21T15:33:03.889Z,47.40
2023-05-21T15:35:16.072Z,46.83
2023-05-21T15:37:29.671Z,47.99
2023-05-21T15:39:42.683Z,47.28
2023-05-21T15:41:55.725Z,47.85
2023-05-21T15:44:08.811Z,45.95
2023-05-21T15:46:21.911Z,47.21
2023-05-21T15:48:35.445Z,44.51
2023-05-21T15:50:47.567Z,45.16
2023-05-21T15:52:59.638Z,45.65
2023-05-21T15:55:13.217Z,45.46
2023-05-21T15:57:25.376Z,44.94
2023-05-21T15:59:37.447Z,45.24
2023-05-21T16:01:50.773Z,44.96
2023-05-21T16:04:01.931Z,45.73
2023-05-21T16:06:14.001Z,44.72
2023-05-21T16:08:26.080Z,45.00
2023-05-21T16:10:38.156Z,44.88
2023-05-21T16:12:50.256Z,44.09
2023-05-21T16:15:03.822Z,43.84
2023-05-21T16:17:15.976Z,45.46
2023-05-21T16:19:28.110Z,45.65
2023-05-21T16:21:40.101Z,44.98
2023-05-21T16:23:52.212Z,44.79
2023-05-21T16:26:04.775Z,45.28
2023-05-21T16:28:16.343Z,43.90
2023-05-21T16:30:29.909Z,43.76
2023-05-21T16:32:42.028Z,42.65
2023-05-21T16:34:54.128Z,44.01
2023-05-21T16:37:06.137Z,42.61
2023-05-21T16:39:19.823Z,43.84
2023-05-21T16:41:31.333Z,43.86
2023-05-21T16:43:44.332Z,44.59
2023-05-21T16:45:55.626Z,45.50
2023-05-21T16:48:07.695Z,46.14
2023-05-21T16:50:21.256Z,46.67
2023-05-21T16:52:33.318Z,46.89
2023-05-21T16:54:45.871Z,47.78
2023-05-21T16:56:57.531Z,47.99
2023-05-21T16:59:09.610Z,46.89
2023-05-21T17:01:21.997Z,47.71
2023-05-21T17:03:34.234Z,48.30
2023-05-21T17:05:46.137Z,48.03
2023-05-21T17:07:58.250Z,47.66
2023-05-21T17:10:10.306Z,48.94
2023-05-21T17:12:22.870Z,47.98
2023-05-21T17:14:36.242Z,48.67
2023-05-21T17:16:46.841Z,48.57
2023-05-21T17:18:58.966Z,49.27
2023-05-21T17:21:11.002Z,48.80
2023-05-21T17:23:23.159Z,48.10
2023-05-21T17:24:23.094Z,47.61
2023-05-21T17:26:36.645Z,48.90
2023-05-21T17:28:48.731Z,48.62
2023-05-21T17:31:00.821Z,48.92
2023-05-21T17:33:12.930Z,48.92
2023-05-21T17:35:26.484Z,49.02
2023-05-21T17:37:38.557Z,49.21
2023-05-21T17:39:52.189Z,49.44
2023-05-21T17:42:04.200Z,49.84
2023-05-21T17:44:16.286Z,49.63
2023-05-21T17:46:28.435Z,49.93
2023-05-21T17:48:41.950Z,50.03
2023-05-21T17:50:54.026Z,50.45
2023-05-21T17:53:06.114Z,50.45
2023-05-21T17:55:18.190Z,50.95
2023-05-21T17:57:30.303Z,50.68
2023-05-21T17:59:42.346Z,50.58
2023-05-21T18:01:57.976Z,50.88
2023-05-21T18:04:12.570Z,51.00
2023-05-21T18:06:28.081Z,51.00
2023-05-21T18:08:46.196Z,52.39
2023-05-21T18:11:04.260Z,52.51
2023-05-21T18:13:22.328Z,52.22
2023-05-21T18:15:37.038Z,51.92
2023-05-21T18:17:51.546Z,53.21
2023-05-21T18:20:03.621Z,52.64
2023-05-21T18:22:16.647Z,52.74
2023-05-21T18:24:30.241Z,52.34
2023-05-21T18:26:43.902Z,53.74
2023-05-21T18:28:56.882Z,53.76
2023-05-21T18:31:09.986Z,53.86
2023-05-21T18:37:39.209Z,53.49
2023-05-21T18:50:55.363Z,55.43
2023-05-21T18:54:47.945Z,56.56
2023-05-21T18:56:41.077Z,54.86
2023-05-21T19:01:32.631Z,56.68
2023-05-21T19:03:50.634Z,56.09
2023-05-21T19:16:57.892Z,57.11
2023-05-21T19:18:40.662Z,57.14
2023-05-21T19:20:52.471Z,56.64
2023-05-21T19:23:08.095Z,58.76
2023-05-21T19:25:21.150Z,57.76
2023-05-21T19:27:39.269Z,58.06
2023-05-21T19:29:54.894Z,57.50
2023-05-21T19:32:10.389Z,57.39
2023-05-21T19:34:44.996Z,57.69
2023-05-21T19:36:53.075Z,58.89
2023-05-21T19:38:58.605Z,59.09
2023-05-21T19:41:12.156Z,58.49
2023-05-21T19:43:24.280Z,58.02
2023-05-21T19:45:37.837Z,59.92
2023-05-21T19:47:51.447Z,60.95
2023-05-21T19:50:03.541Z,60.65
2023-05-21T19:52:15.606Z,60.05
2023-05-21T19:54:57.759Z,60.05
2023-05-21T19:59:27.637Z,60.88
2023-05-21T20:01:45.713Z,60.48
2023-05-21T20:03:57.771Z,61.08
2023-05-21T20:06:12.353Z,60.78
2023-05-21T20:08:27.937Z,60.98
2023-05-21T20:10:43.512Z,61.48
2023-05-21T20:12:59.104Z,61.78
2023-05-21T20:15:14.691Z,59.98
2023-05-21T20:17:30.383Z,61.18
2023-05-21T20:19:43.861Z,60.18
2023-05-21T20:21:56.029Z,61.38
2023-05-21T20:24:08.052Z,60.68
2023-05-21T20:26:20.142Z,60.91
2023-05-21T20:28:32.268Z,61.41
2023-05-21T20:30:44.308Z,62.21
2023-05-21T20:32:56.411Z,61.84
2023-05-21T20:35:08.454Z,63.45
2023-05-21T20:37:20.544Z,63.14
2023-05-21T20:39:32.620Z,62.34
2023-05-21T20:41:45.676Z,64.15
2023-05-21T20:43:57.779Z,63.98
2023-05-21T20:46:09.904Z,64.07
2023-05-21T20:48:22.260Z,64.37
2023-05-21T20:50:34.354Z,63.47
2023-05-21T20:52:47.445Z,64.07
2023-05-21T20:54:58.474Z,63.98
2023-05-21T20:57:10.598Z,63.87
2023-05-21T20:59:22.695Z,63.98
2023-05-21T21:01:34.814Z,63.28
2023-05-21T21:03:46.953Z,62.67
2023-05-21T21:05:59.936Z,63.87
2023-05-21T21:08:11.988Z,63.57
2023-05-21T21:10:24.070Z,64.68
2023-05-21T21:12:36.168Z,65.31
2023-05-21T21:14:48.209Z,64.51
2023-05-21T21:17:01.302Z,65.01
2023-05-21T21:19:13.388Z,63.40
2023-05-21T21:21:25.482Z,64.81
2023-05-21T21:23:37.547Z,63.60
2023-05-21T21:25:49.685Z,64.81
2023-05-21T21:28:01.708Z,64.71
2023-05-21T21:30:14.772Z,64.81
2023-05-21T21:32:26.872Z,65.11
2023-05-21T21:34:38.977Z,64.81
2023-05-21T21:36:51.014Z,64.21
2023-05-21T21:39:03.090Z,65.31
2023-05-21T21:41:16.120Z,64.24
2023-05-21T21:43:27.246Z,64.14
2023-05-21T21:45:39.397Z,64.74
2023-05-21T21:47:51.431Z,65.24
2023-05-21T21:50:03.501Z,63.93
2023-05-21T21:52:15.726Z,65.24
2023-05-21T21:54:27.660Z,64.94
2023-05-21T21:56:40.679Z,64.64
2023-05-21T21:58:52.789Z,64.84
2023-05-21T22:01:04.881Z,64.94
2023-05-21T22:03:17.960Z,65.27
2023-05-21T22:05:30.033Z,64.54
2023-05-21T22:07:42.138Z,64.74
2023-05-21T22:09:54.192Z,64.74
2023-05-21T22:12:07.266Z,63.84
2023-05-21T22:14:19.356Z,63.93
2023-05-21T22:16:31.490Z,64.24
2023-05-21T22:18:43.562Z,63.53
2023-05-21T22:20:55.587Z,65.14
2023-05-21T22:23:07.675Z,64.04
2023-05-21T22:25:19.726Z,65.34
2023-05-21T22:27:31.847Z,64.14
2023-05-21T22:29:43.927Z,66.44
2023-05-21T22:31:56.002Z,65.27
2023-05-21T22:34:08.037Z,65.17
2023-05-21T22:36:20.135Z,64.97
2023-05-21T22:38:32.206Z,65.67
2023-05-21T22:40:44.308Z,64.17
2023-05-21T22:42:56.393Z,64.97
2023-05-21T22:45:08.478Z,64.77
2023-05-21T22:47:20.547Z,64.87
2023-05-21T22:49:32.690Z,63.56
2023-05-21T22:51:44.747Z,64.34
2023-05-21T22:53:56.831Z,64.97
2023-05-21T22:56:10.869Z,64.07
2023-05-21T22:58:22.950Z,64.17
2023-05-21T23:00:35.090Z,63.46
2023-05-21T23:02:47.187Z,64.27
2023-05-21T23:04:59.246Z,64.07
2023-05-21T23:07:11.340Z,64.07
2023-05-21T23:09:23.368Z,63.87
2023-05-21T23:11:35.423Z,63.56
2023-05-21T23:13:47.526Z,62.06
2023-05-21T23:15:59.638Z,62.66
2023-05-21T23:18:12.250Z,63.36
2023-05-21T23:20:23.773Z,62.26
2023-05-21T23:22:36.746Z,62.66
2023-05-21T23:24:47.953Z,62.36
2023-05-21T23:27:00.034Z,61.96
2023-05-21T23:29:12.072Z,62.19
2023-05-21T23:31:24.401Z,63.49
2023-05-21T23:33:36.261Z,62.19
2023-05-21T23:35:48.337Z,63.53
2023-05-21T23:38:00.393Z,63.02
2023-05-21T23:40:12.485Z,62.08
2023-05-21T23:42:24.739Z,62.29
2023-05-21T23:44:37.597Z,61.58
2023-05-21T23:46:49.806Z,62.69
2023-05-21T23:49:01.840Z,62.99
2023-05-21T23:51:13.937Z,62.82
2023-05-21T23:53:26.925Z,63.93
2023-05-21T23:55:38.091Z,64.06
2023-05-21T23:57:51.186Z,64.36
